Time;durP1;ratioP1;P1;durP2;ratioP2;P2;SDS_P1;SDS_P2;PMS_P1;PMS_P2;Temp;Humidity;BMP_temperature;BMP_pressure;BME280_temperature;BME280_humidity;BME280_pressure;Samples;Min_cycle;Max_cycle;Signal;HPM_P1;HPM_P2
2024/04/12 00:01:46;;;;;;;5.37;3.57;;;;;;;13.33;50.72;101674.72;5447524;26;20257;-60
2024/04/12 00:04:15;;;;;;;5.73;3.70;;;;;;;13.30;50.58;101674.69;5451009;26;20812;-61
2024/04/12 00:06:49;;;;;;;5.73;3.30;;;;;;;13.27;50.83;101665.19;5451084;26;20241;-62
2024/04/12 00:09:18;;;;;;;5.77;3.90;;;;;;;13.25;51.22;101676.41;5449567;26;20263;-62
2024/04/12 00:11:48;;;;;;;7.07;3.53;;;;;;;13.23;51.12;101681.56;5451084;26;20234;-61
2024/04/12 00:14:17;;;;;;;5.77;3.77;;;;;;;13.18;51.39;101675.50;5450303;26;20763;-61
2024/04/12 00:16:52;;;;;;;5.97;3.90;;;;;;;13.15;51.93;101679.78;5451223;26;21117;-63
2024/04/12 00:19:21;;;;;;;5.83;3.50;;;;;;;13.12;51.81;101679.78;5449238;26;20346;-62
2024/04/12 00:21:52;;;;;;;6.50;3.53;;;;;;;13.12;51.74;101684.94;5450740;26;20327;-60
2024/04/12 00:24:24;;;;;;;8.10;3.43;;;;;;;13.11;52.22;101680.63;5448291;26;20783;-61
2024/04/12 00:26:56;;;;;;;8.70;3.60;;;;;;;13.10;51.86;101673.72;5450855;26;20341;-61
2024/04/12 00:29:30;;;;;;;6.47;4.10;;;;;;;13.09;52.15;101685.78;5450752;26;20857;-62
2024/04/12 00:32:13;;;;;;;5.97;3.60;;;;;;;13.04;52.03;101687.50;5450290;26;20666;-62
2024/04/12 00:34:47;;;;;;;6.40;3.43;;;;;;;13.05;52.66;101681.47;5450140;26;20337;-62
2024/04/12 00:37:20;;;;;;;4.97;3.80;;;;;;;13.04;52.34;101688.38;5448441;26;20289;-63
2024/04/12 00:39:49;;;;;;;5.73;4.07;;;;;;;13.02;52.64;101679.72;5447349;26;20246;-62
2024/04/12 00:42:26;;;;;;;6.00;4.03;;;;;;;13.02;52.73;101682.31;5448392;26;20257;-61
2024/04/12 00:44:54;;;;;;;5.97;4.00;;;;;;;13.02;53.11;101678.84;5448995;26;20242;-60
2024/04/12 00:47:28;;;;;;;7.80;4.03;;;;;;;12.97;52.94;101673.66;5450201;26;20713;-60
2024/04/12 00:49:57;;;;;;;7.57;4.00;;;;;;;12.97;53.07;101672.81;5450244;26;20276;-60
2024/04/12 00:52:33;;;;;;;5.13;3.70;;;;;;;12.99;53.58;101671.94;5443482;26;20238;-61
2024/04/12 00:55:03;;;;;;;9.47;4.40;;;;;;;13.01;53.34;101672.81;5448117;26;20622;-60
2024/04/12 00:57:35;;;;;;;7.40;4.13;;;;;;;13.02;53.52;101668.50;5437281;26;20870;-60
2024/04/12 01:00:08;;;;;;;6.07;3.97;;;;;;;13.03;53.15;101665.94;5419968;26;20331;-62
2024/04/12 01:02:47;;;;;;;5.87;3.97;;;;;;;13.06;53.57;101663.34;5420232;26;20242;-62
2024/04/12 01:05:16;;;;;;;7.53;4.23;;;;;;;13.05;53.71;101658.19;5447286;26;20272;-61
2024/04/12 01:07:55;;;;;;;5.87;3.60;;;;;;;13.04;53.68;101661.63;5449490;26;20281;-63
2024/04/12 01:10:24;;;;;;;6.17;3.77;;;;;;;13.04;53.77;101662.50;5448198;26;20661;-60
2024/04/12 01:12:58;;;;;;;6.00;3.47;;;;;;;13.10;53.46;101671.13;5442165;26;20359;-61
2024/04/12 01:15:32;;;;;;;6.37;3.67;;;;;;;13.10;53.56;101666.81;5448129;26;20745;-62
2024/04/12 01:18:11;;;;;;;7.70;4.17;;;;;;;13.10;54.03;101665.94;5447305;26;22165;-62
2024/04/12 01:20:40;;;;;;;6.07;3.73;;;;;;;13.08;53.77;101671.13;5449714;26;20257;-60
2024/04/12 01:23:15;;;;;;;4.13;3.73;;;;;;;13.09;54.47;101675.44;5449320;26;20323;-61
2024/04/12 01:25:47;;;;;;;5.70;4.00;;;;;;;13.09;54.64;101669.41;5449492;26;20229;-60
2024/04/12 01:28:19;;;;;;;6.53;3.40;;;;;;;13.11;54.63;101672.84;5449170;26;20234;-63
2024/04/12 01:30:46;;;;;;;6.73;4.10;;;;;;;13.11;54.59;101680.63;5444429;26;20247;-61
2024/04/12 01:33:16;;;;;;;7.07;4.00;;;;;;;13.11;54.26;101678.03;5449094;26;20250;-63
2024/04/12 01:35:44;;;;;;;6.30;3.83;;;;;;;13.14;54.71;101688.41;5449358;26;20338;-60
2024/04/12 01:38:19;;;;;;;5.50;3.97;;;;;;;13.10;54.54;101684.94;5446052;26;20577;-60
2024/04/12 01:40:56;;;;;;;6.67;4.20;;;;;;;13.08;55.16;101684.06;5449595;26;20312;-61
2024/04/12 01:43:32;;;;;;;7.60;3.83;;;;;;;13.05;54.97;101681.47;5449128;26;20704;-63
2024/04/12 01:46:00;;;;;;;7.87;4.07;;;;;;;13.05;55.02;101689.22;5449591;26;20720;-61
2024/04/12 01:48:33;;;;;;;5.73;3.87;;;;;;;13.05;55.21;101679.75;5448855;26;20284;-59
2024/04/12 01:51:02;;;;;;;5.13;3.90;;;;;;;13.04;55.42;101678.03;5445824;26;20290;-61
2024/04/12 01:53:36;;;;;;;5.63;4.00;;;;;;;13.04;55.57;101683.19;5445766;26;20346;-62
2024/04/12 01:56:09;;;;;;;6.33;4.10;;;;;;;13.03;55.94;101686.66;5414577;26;20331;-61
2024/04/12 01:58:40;;;;;;;5.57;4.03;;;;;;;13.00;55.77;101689.22;5448768;26;20326;-61
2024/04/12 02:01:11;;;;;;;7.17;4.13;;;;;;;13.03;55.42;101678.88;5452648;26;20393;-60
2024/04/12 02:03:42;;;;;;;6.40;3.93;;;;;;;13.08;55.63;101683.22;5438886;26;20608;-62
2024/04/12 02:06:10;;;;;;;5.50;3.87;;;;;;;13.09;55.96;101682.34;5452795;26;20241;-61
2024/04/12 02:08:39;;;;;;;5.20;3.67;;;;;;;13.11;55.68;101684.09;5449899;26;20249;-62
2024/04/12 02:11:11;;;;;;;6.67;3.93;;;;;;;13.10;55.72;101681.47;5452326;26;20285;-61
2024/04/12 02:13:41;;;;;;;8.17;3.77;;;;;;;13.08;55.48;101680.63;5451875;26;20277;-62
2024/04/12 02:16:10;;;;;;;6.20;3.70;;;;;;;13.06;55.65;101678.88;5452295;26;20540;-61
2024/04/12 02:18:44;;;;;;;6.90;3.73;;;;;;;13.07;56.08;101682.34;5452556;26;20583;-61
2024/04/12 02:21:12;;;;;;;5.30;3.57;;;;;;;13.04;56.11;101678.03;5452661;26;20339;-63
2024/04/12 02:23:43;;;;;;;13.47;3.83;;;;;;;13.07;55.90;101682.34;5452250;26;20248;-61
2024/04/12 02:26:15;;;;;;;7.83;3.97;;;;;;;13.06;55.66;101678.00;5452437;26;20273;-62
2024/04/12 02:28:47;;;;;;;7.07;3.17;;;;;;;13.04;55.93;101675.44;5448995;26;20254;-61
2024/04/12 02:31:14;;;;;;;11.23;3.97;;;;;;;13.09;55.95;101669.41;5451950;26;20709;-61
2024/04/12 02:33:44;;;;;;;6.80;3.70;;;;;;;13.12;55.91;101677.19;5451737;26;20234;-61
2024/04/12 02:36:11;;;;;;;7.60;3.13;;;;;;;13.11;56.20;101670.25;5452149;26;20355;-62
2024/04/12 02:38:43;;;;;;;5.33;3.53;;;;;;;13.12;56.40;101684.94;5452633;26;20330;-61
2024/04/12 02:41:13;;;;;;;5.53;3.20;;;;;;;13.10;56.37;101682.34;5451975;26;20343;-60
2024/04/12 02:43:45;;;;;;;10.37;3.63;;;;;;;13.08;55.90;101690.97;5451756;26;20609;-62
2024/04/12 02:46:13;;;;;;;6.00;3.27;;;;;;;13.05;56.28;101692.69;5433360;26;20241;-61
2024/04/12 02:48:44;;;;;;;6.90;3.80;;;;;;;13.02;56.25;101678.84;5451371;26;20299;-61
2024/04/12 02:51:13;;;;;;;4.87;3.57;;;;;;;12.99;57.03;101687.47;5451343;26;20286;-62
2024/04/12 02:53:43;;;;;;;5.53;3.43;;;;;;;12.94;56.67;101681.41;5451511;26;20578;-63
2024/04/12 02:56:14;;;;;;;5.03;3.43;;;;;;;12.90;57.16;101681.41;5451681;26;20241;-63
2024/04/12 02:58:45;;;;;;;7.20;3.73;;;;;;;12.91;56.75;101683.13;5451714;26;20307;-62
2024/04/12 03:01:14;;;;;;;7.60;3.83;;;;;;;12.89;57.43;101690.88;5452042;26;21248;-62
2024/04/12 03:03:47;;;;;;;7.97;3.70;;;;;;;12.88;57.24;101691.72;5445587;26;20249;-61
2024/04/12 03:06:17;;;;;;;9.30;3.80;;;;;;;12.88;57.38;101689.13;5451684;26;20276;-62
2024/04/12 03:08:49;;;;;;;6.47;4.00;;;;;;;12.86;57.50;101683.09;5451608;26;20710;-63
2024/04/12 03:11:21;;;;;;;8.13;3.87;;;;;;;12.85;57.48;101680.50;5451735;26;20230;-60
2024/04/12 03:13:54;;;;;;;6.40;3.87;;;;;;;12.85;57.66;101688.25;5451492;26;20311;-61
2024/04/12 03:16:22;;;;;;;8.40;4.10;;;;;;;12.84;57.83;101687.38;5450731;26;20241;-61
2024/04/12 03:18:54;;;;;;;6.60;3.57;;;;;;;12.84;58.21;101681.34;5451237;26;20226;-61
2024/04/12 03:21:24;;;;;;;4.30;3.30;;;;;;;12.82;58.01;101682.22;5449129;26;20628;-63
2024/04/12 03:23:55;;;;;;;6.80;3.40;;;;;;;12.79;58.59;101686.50;5449908;26;20242;-65
2024/04/12 03:26:25;;;;;;;6.47;3.70;;;;;;;12.76;58.76;101689.06;5449213;26;20287;-65
2024/04/12 03:28:58;;;;;;;7.77;4.03;;;;;;;12.74;58.30;101683.91;5448518;26;20407;-62
2024/04/12 03:31:26;;;;;;;4.93;3.70;;;;;;;12.75;58.35;101682.19;5451106;26;20564;-61
2024/04/12 03:34:00;;;;;;;8.03;3.30;;;;;;;12.68;59.03;101663.16;5451130;26;20603;-61
2024/04/12 03:36:39;;;;;;;6.93;3.97;;;;;;;12.71;58.75;101667.50;5449294;26;20258;-61
2024/04/12 03:39:24;;;;;;;5.03;3.23;;;;;;;12.73;58.75;101665.78;5451442;26;20234;-60
2024/04/12 03:41:57;;;;;;;5.80;3.27;;;;;;;12.67;59.26;101661.44;5448596;26;20350;-61
2024/04/12 03:44:30;;;;;;;4.70;3.10;;;;;;;12.67;58.81;101658.00;5449992;26;20234;-60
2024/04/12 03:47:02;;;;;;;3.63;2.73;;;;;;;12.67;58.90;101664.03;5450940;26;20234;-64
2024/04/12 03:49:38;;;;;;;5.30;2.53;;;;;;;12.70;59.11;101660.56;5451288;26;20717;-60
2024/04/12 03:52:11;;;;;;;5.00;2.87;;;;;;;12.73;59.52;101665.78;5450770;26;20304;-60
2024/04/12 03:54:42;;;;;;;2.93;2.63;;;;;;;12.79;59.66;101668.41;5450641;26;20692;-61
2024/04/12 03:57:12;;;;;;;4.73;2.63;;;;;;;12.79;59.91;101668.41;5421520;26;20250;-61
2024/04/12 03:59:43;;;;;;;4.07;2.53;;;;;;;12.78;60.50;101664.97;5449138;26;20713;-63
2024/04/12 04:02:18;;;;;;;10.50;3.47;;;;;;;12.76;60.27;101676.16;5451003;26;20230;-63
2024/04/12 04:04:49;;;;;;;4.40;2.77;;;;;;;12.71;60.73;101662.34;5450984;26;20342;-62
2024/04/12 04:07:17;;;;;;;6.07;2.60;;;;;;;12.72;60.91;101669.22;5450615;26;20236;-62
2024/04/12 04:09:49;;;;;;;6.10;3.20;;;;;;;12.72;61.28;101670.09;5443606;26;20305;-61
2024/04/12 04:12:21;;;;;;;5.10;3.10;;;;;;;12.74;60.82;101677.84;5419477;26;20245;-60
2024/04/12 04:14:51;;;;;;;5.90;3.13;;;;;;;12.73;60.29;101676.97;5449869;26;20230;-62
2024/04/12 04:17:29;;;;;;;10.03;3.73;;;;;;;12.73;60.82;101684.75;5450409;26;20614;-60
2024/04/12 04:20:05;;;;;;;7.93;3.27;;;;;;;12.65;61.09;101676.06;5448993;26;20309;-60
2024/04/12 04:22:41;;;;;;;4.70;3.63;;;;;;;12.60;60.99;101677.78;5448137;26;20611;-60
2024/04/12 04:25:13;;;;;;;6.43;4.00;;;;;;;12.52;60.89;101677.72;5447766;26;20301;-62
2024/04/12 04:27:43;;;;;;;7.83;3.70;;;;;;;12.44;61.24;101684.53;5449719;26;20231;-64
2024/04/12 04:30:17;;;;;;;13.43;4.03;;;;;;;12.39;61.49;101687.97;5450626;26;20227;-63
2024/04/12 04:32:45;;;;;;;6.73;3.60;;;;;;;12.32;61.34;101680.16;5447138;26;20733;-60
2024/04/12 04:35:16;;;;;;;6.93;4.50;;;;;;;12.26;61.30;101679.25;5450031;26;20242;-62
2024/04/12 04:37:44;;;;;;;15.93;5.60;;;;;;;12.24;62.07;101683.56;5446832;26;20345;-63
2024/04/12 04:40:16;;;;;;;11.80;5.13;;;;;;;12.35;61.45;101681.91;5442060;26;20293;-62
2024/04/12 04:42:49;;;;;;;10.27;4.97;;;;;;;12.44;61.14;101678.50;5448978;26;20582;-63
2024/04/12 04:45:21;;;;;;;10.23;5.07;;;;;;;12.56;61.08;101684.66;5446512;26;20285;-62
2024/04/12 04:47:50;;;;;;;17.97;5.03;;;;;;;12.61;60.79;101691.56;5445985;26;20276;-61
2024/04/12 04:50:21;;;;;;;6.93;4.80;;;;;;;12.67;60.93;101687.31;5449626;26;20268;-60
2024/04/12 04:52:50;;;;;;;12.93;5.00;;;;;;;12.75;59.87;101688.22;5449652;26;20578;-62
2024/04/12 04:55:21;;;;;;;13.07;5.53;;;;;;;12.78;60.43;101684.78;5443920;26;20294;-62
2024/04/12 04:57:54;;;;;;;11.90;5.73;;;;;;;12.85;59.60;101681.38;5444967;26;20645;-61
2024/04/12 05:00:28;;;;;;;11.30;5.20;;;;;;;12.87;60.16;101690.00;5449131;26;20325;-61
2024/04/12 05:02:55;;;;;;;16.37;5.60;;;;;;;12.95;59.73;101690.91;5449425;26;20673;-62
2024/04/12 05:05:27;;;;;;;11.40;5.13;;;;;;;13.03;59.34;101690.94;5450000;26;20230;-60
2024/04/12 05:07:57;;;;;;;10.90;5.23;;;;;;;13.11;59.05;101696.13;5442084;26;20246;-60
2024/04/12 05:10:33;;;;;;;9.30;5.73;;;;;;;13.06;58.61;101702.16;5448859;26;20234;-63
2024/04/12 05:13:06;;;;;;;7.83;5.20;;;;;;;13.06;59.07;101701.31;5447287;26;20354;-61
2024/04/12 05:15:51;;;;;;;9.73;5.40;;;;;;;13.08;58.72;101703.91;5442944;26;20633;-61
2024/04/12 05:18:19;;;;;;;13.73;5.63;;;;;;;13.15;58.61;101706.53;5446635;26;20771;-61
2024/04/12 05:20:50;;;;;;;9.90;5.23;;;;;;;13.25;58.26;101702.28;5447015;26;20246;-60
2024/04/12 05:23:18;;;;;;;9.80;5.20;;;;;;;13.33;58.03;101702.31;5446716;26;20726;-61
2024/04/12 05:25:49;;;;;;;12.37;5.63;;;;;;;13.31;57.69;101710.06;5449078;26;20276;-63
2024/04/12 05:28:20;;;;;;;8.23;5.33;;;;;;;13.21;58.10;101716.03;5449376;26;20290;-63
2024/04/12 05:30:54;;;;;;;9.87;5.90;;;;;;;13.06;58.40;101707.34;5450154;26;20262;-62
2024/04/12 05:33:23;;;;;;;11.17;5.37;;;;;;;12.95;58.58;101703.84;5452458;26;20246;-63
2024/04/12 05:35:53;;;;;;;7.20;5.30;;;;;;;12.94;59.22;101702.13;5452652;26;20234;-62
2024/04/12 05:38:21;;;;;;;7.43;4.97;;;;;;;12.92;58.92;101703.81;5448346;26;20254;-63
2024/04/12 05:40:56;;;;;;;11.53;5.30;;;;;;;12.86;58.95;101693.44;5439947;26;20741;-62
2024/04/12 05:43:29;;;;;;;9.57;5.10;;;;;;;12.85;59.13;101694.31;5445000;26;20776;-64
2024/04/12 05:46:00;;;;;;;7.17;5.03;;;;;;;12.82;59.16;101699.47;5452925;26;20282;-62
2024/04/12 05:48:28;;;;;;;9.37;5.70;;;;;;;12.82;59.35;101699.47;5451143;26;20284;-61
2024/04/12 05:50:58;;;;;;;9.07;5.17;;;;;;;12.82;59.62;101708.09;5451957;26;20301;-62
2024/04/12 05:53:30;;;;;;;9.17;4.90;;;;;;;12.86;59.54;101698.63;5451818;26;20281;-62
2024/04/12 05:58:52;;;;;;;8.00;4.90;;;;;;;12.95;59.83;101708.16;5447114;26;20246;-63
2024/04/12 06:01:19;;;;;;;8.07;5.13;;;;;;;13.02;60.06;101715.94;5448816;26;20602;-60
2024/04/12 06:03:53;;;;;;;11.23;4.80;;;;;;;13.02;60.27;101692.66;5451312;26;20253;-61
2024/04/12 06:06:30;;;;;;;8.83;4.70;;;;;;;13.16;59.88;101704.81;5447991;26;20329;-61
2024/04/12 06:09:01;;;;;;;6.63;4.67;;;;;;;13.28;59.61;101699.72;5450263;26;20249;-62
2024/04/12 06:11:31;;;;;;;6.03;4.40;;;;;;;13.53;58.94;101691.16;5451681;26;20789;-62
2024/04/12 06:14:02;;;;;;;7.47;4.77;;;;;;;13.92;57.80;101693.84;5451394;26;20781;-64
2024/04/12 06:16:33;;;;;;;10.33;4.50;;;;;;;14.33;57.10;101687.81;5449314;26;20246;-64
2024/04/12 06:19:02;;;;;;;7.03;4.60;;;;;;;14.73;55.75;101689.50;5452125;26;20561;-62
2024/04/12 06:21:36;;;;;;;10.77;5.43;;;;;;;15.12;54.89;101690.22;5450306;26;20289;-63
2024/04/12 06:24:08;;;;;;;6.82;4.30;;;;;;;15.46;53.64;101697.84;5448397;26;20250;-62
2024/04/12 06:26:41;;;;;;;8.85;5.18;;;;;;;15.69;52.02;101674.41;5452317;26;20230;-66
2024/04/12 06:29:16;;;;;;;8.80;4.60;;;;;;;16.03;51.65;101695.81;5452758;26;20242;-62
2024/04/12 06:31:58;;;;;;;10.00;4.85;;;;;;;16.11;50.09;101682.75;5452743;26;20330;-61
2024/04/12 06:34:25;;;;;;;9.00;4.38;;;;;;;16.14;49.83;101677.50;5450696;26;20254;-63
2024/04/12 06:37:05;;;;;;;9.00;5.28;;;;;;;16.24;50.20;101673.06;5446358;26;20242;-63
2024/04/12 06:39:34;;;;;;;7.78;4.78;;;;;;;16.53;49.85;101675.41;5452599;26;20226;-61
2024/04/12 06:42:08;;;;;;;7.68;4.60;;;;;;;16.82;49.31;101675.13;5446596;26;20246;-62
2024/04/12 06:44:42;;;;;;;9.52;4.13;;;;;;;16.95;47.52;101662.84;5441997;26;20330;-61
2024/04/12 06:47:10;;;;;;;5.93;4.18;;;;;;;17.15;48.31;101663.44;5451394;26;20322;-60
2024/04/12 06:49:44;;;;;;;6.68;4.35;;;;;;;17.38;47.43;101666.63;5452101;26;20681;-61
2024/04/12 06:52:15;;;;;;;7.47;4.28;;;;;;;17.48;46.18;101663.88;5449470;26;20685;-62
2024/04/12 06:54:47;;;;;;;6.78;4.15;;;;;;;17.30;47.28;101673.66;5452700;26;20246;-62
2024/04/12 06:57:18;;;;;;;10.32;4.80;;;;;;;17.13;47.33;101660.88;5451082;26;20281;-63
2024/04/12 06:59:58;;;;;;;6.97;3.60;;;;;;;17.05;48.44;101674.88;5449772;26;20804;-63
2024/04/12 07:02:29;;;;;;;7.15;3.70;;;;;;;16.93;48.60;101680.22;5450196;26;20317;-61
2024/04/12 07:05:05;;;;;;;8.70;3.70;;;;;;;16.68;48.98;101680.47;5448907;26;20246;-63
2024/04/12 07:07:32;;;;;;;6.53;3.90;;;;;;;16.49;50.16;101678.91;5416295;26;20270;-61
2024/04/12 07:10:09;;;;;;;9.02;3.75;;;;;;;16.34;50.38;101685.13;5447193;26;20230;-63
2024/04/12 07:12:43;;;;;;;6.13;3.58;;;;;;;16.16;51.13;101676.63;5449377;26;20245;-60
2024/04/12 07:15:21;;;;;;;7.10;3.92;;;;;;;16.13;51.51;101679.25;5450350;26;20755;-64
2024/04/12 07:17:48;;;;;;;8.82;4.10;;;;;;;16.16;52.06;101671.44;5448593;26;20603;-62
2024/04/12 07:20:27;;;;;;;6.13;3.55;;;;;;;16.27;51.59;101676.50;5449577;26;20296;-60
2024/04/12 07:22:55;;;;;;;5.40;3.53;;;;;;;16.29;51.26;101681.72;5449223;26;20311;-61
2024/04/12 07:25:25;;;;;;;6.30;3.97;;;;;;;16.22;51.69;101680.91;5447344;26;20284;-63
2024/04/12 07:27:53;;;;;;;5.30;3.90;;;;;;;16.09;52.34;101684.47;5443774;26;20330;-60
2024/04/12 07:30:27;;;;;;;7.28;3.70;;;;;;;15.98;52.90;101686.28;5449033;26;21941;-62
2024/04/12 07:32:55;;;;;;;4.65;3.22;;;;;;;15.86;53.27;101685.50;5448416;26;20623;-64
2024/04/12 07:35:26;;;;;;;4.57;3.50;;;;;;;15.80;53.53;101692.53;5447150;26;20333;-63
2024/04/12 07:37:54;;;;;;;8.48;3.40;;;;;;;15.84;54.15;101694.22;5447792;26;20249;-62
2024/04/12 07:40:34;;;;;;;8.57;3.90;;;;;;;15.86;54.18;101695.91;5449026;26;20244;-61
2024/04/12 07:43:08;;;;;;;7.47;3.80;;;;;;;15.86;54.29;101701.09;5450561;26;20403;-61
2024/04/12 07:45:43;;;;;;;6.00;3.85;;;;;;;15.81;53.72;101695.09;5446645;26;20343;-63
2024/04/12 07:48:23;;;;;;;6.88;4.68;;;;;;;15.69;54.36;101701.25;5450906;26;20230;-63
2024/04/12 07:51:00;;;;;;;6.07;4.13;;;;;;;15.52;54.74;101708.22;5446662;26;20292;-63
2024/04/12 07:53:34;;;;;;;6.65;4.05;;;;;;;15.41;55.31;101710.88;5449090;26;20246;-62
2024/04/12 07:56:14;;;;;;;6.45;4.07;;;;;;;15.39;55.63;101697.06;5452305;26;20296;-64
2024/04/12 07:58:43;;;;;;;7.40;3.95;;;;;;;15.39;55.68;101702.25;5447161;26;20241;-75
2024/04/12 08:01:19;;;;;;;6.00;2.80;;;;;;;15.39;55.89;101701.34;5449314;26;20253;-62
2024/04/12 08:03:50;;;;;;;6.35;3.40;;;;;;;15.41;56.15;101705.69;5449868;26;20234;-62
2024/04/12 08:06:36;;;;;;;4.78;3.33;;;;;;;15.43;55.80;101708.28;5449387;26;20282;-63
2024/04/12 08:09:06;;;;;;;5.13;3.30;;;;;;;15.31;56.28;101701.38;5434090;26;20281;-65
2024/04/12 08:11:41;;;;;;;4.95;2.22;;;;;;;15.27;56.56;101707.47;5450336;26;21194;-60
2024/04/12 08:14:19;;;;;;;3.58;2.30;;;;;;;15.23;56.82;101705.75;5438717;26;20761;-62
2024/04/12 08:16:55;;;;;;;3.42;2.50;;;;;;;15.25;56.94;101700.59;5463847;26;20245;-61
2024/04/12 08:19:38;;;;;;;3.10;2.35;;;;;;;15.23;57.07;101704.03;5450240;26;20226;-61
2024/04/12 08:22:17;;;;;;;2.60;2.15;;;;;;;15.29;57.64;101705.75;5435571;26;20268;-59
2024/04/12 08:24:49;;;;;;;3.33;2.13;;;;;;;15.34;57.13;101714.38;5449282;26;20250;-60
2024/04/12 08:27:24;;;;;;;3.13;1.98;;;;;;;15.34;57.40;101700.53;5449416;26;20289;-60
2024/04/12 08:29:52;;;;;;;3.40;1.95;;;;;;;15.31;57.52;101698.78;5448519;26;20245;-61
2024/04/12 08:32:31;;;;;;;3.00;1.45;;;;;;;15.27;57.86;101704.88;5450042;26;20281;-62
2024/04/12 08:35:06;;;;;;;3.08;1.48;;;;;;;15.26;57.92;101691.91;5430695;26;20576;-61
2024/04/12 08:37:39;;;;;;;2.55;1.00;;;;;;;15.27;58.38;101704.00;5449867;26;20234;-61
2024/04/12 08:40:10;;;;;;;1.52;1.10;;;;;;;15.25;58.54;101700.59;5450341;26;20234;-63
2024/04/12 08:42:41;;;;;;;1.50;1.40;;;;;;;15.23;58.47;101706.63;5437817;26;20595;-61
2024/04/12 08:45:17;;;;;;;1.77;1.60;;;;;;;15.20;58.80;101711.81;5450139;26;20246;-62
2024/04/12 08:48:02;;;;;;;4.18;1.55;;;;;;;15.11;59.34;101711.00;5449680;26;20242;-62
2024/04/12 08:50:31;;;;;;;1.48;1.38;;;;;;;15.07;59.36;101709.31;5428940;26;20739;-61
2024/04/12 08:53:11;;;;;;;3.00;1.33;;;;;;;15.07;59.56;101688.53;5437303;26;20292;-64
2024/04/12 08:55:42;;;;;;;2.80;1.60;;;;;;;15.18;59.59;101697.13;5448339;26;20241;-65
2024/04/12 08:58:20;;;;;;;1.75;1.65;;;;;;;15.22;58.82;101709.25;5448174;26;20837;-64
2024/04/12 09:00:52;;;;;;;1.75;1.65;;;;;;;15.22;59.12;101704.91;5450244;26;20291;-63
2024/04/12 09:03:32;;;;;;;1.75;1.63;;;;;;;15.30;59.22;101697.06;5447394;26;20250;-64
2024/04/12 09:06:00;;;;;;;4.00;1.90;;;;;;;15.38;59.08;101700.50;5447035;26;20233;-64
2024/04/12 09:08:33;;;;;;;2.20;2.00;;;;;;;15.46;59.51;101696.16;5451294;26;20245;-65
2024/04/12 09:11:06;;;;;;;3.10;2.33;;;;;;;15.57;58.76;101705.59;5438819;26;20744;-63
2024/04/12 09:13:39;;;;;;;3.50;2.20;;;;;;;15.60;58.41;101700.38;5452634;26;20729;-64
2024/04/12 09:16:09;;;;;;;2.72;2.53;;;;;;;15.61;58.33;101709.91;5454014;26;20836;-64
2024/04/12 09:18:47;;;;;;;2.80;2.60;;;;;;;15.53;58.32;101711.69;5453830;26;20294;-66
2024/04/12 09:21:24;;;;;;;2.85;2.40;;;;;;;15.36;59.01;101697.06;5448956;26;20715;-65
2024/04/12 09:23:56;;;;;;;3.67;2.55;;;;;;;15.38;59.68;101700.50;5454894;26;20280;-64
2024/04/12 09:26:24;;;;;;;2.40;2.20;;;;;;;15.41;59.13;101690.09;5448489;26;20287;-64
2024/04/12 09:29:09;;;;;;;2.10;2.00;;;;;;;15.44;59.59;101690.09;5452581;26;20234;-65
2024/04/12 09:34:35;;;;;;;3.03;2.80;;;;;;;15.43;58.84;101692.69;5453861;26;20280;-65
2024/04/12 09:37:28;;;;;;;2.42;2.22;;;;;;;15.36;59.67;101698.78;5448865;26;20233;-64
2024/04/12 09:43:24;;;;;;;4.45;2.78;;;;;;;15.51;59.36;101685.72;5439438;26;20829;-63
2024/04/12 09:45:52;;;;;;;3.28;2.22;;;;;;;15.57;59.28;101684.81;5432847;26;20242;-65
2024/04/12 10:39:11;;;;;;;3.13;1.73;;;;;;;16.06;59.64;101655.94;5452613;26;20226;-64
2024/04/12 10:41:45;;;;;;;4.72;1.80;;;;;;;16.00;59.18;101658.56;5452735;26;20222;-65
2024/04/12 10:44:16;;;;;;;2.58;2.10;;;;;;;16.03;59.60;101658.53;5452454;26;20238;-66
2024/04/12 10:46:50;;;;;;;2.08;1.88;;;;;;;16.02;59.61;101656.81;5448302;26;20327;-65
2024/04/12 10:49:21;;;;;;;5.55;1.88;;;;;;;15.97;59.95;101649.03;5433988;26;20315;-65
2024/04/12 10:51:52;;;;;;;3.45;1.77;;;;;;;15.96;60.31;101646.47;5451943;26;20580;-64
2024/04/12 10:54:23;;;;;;;2.28;1.40;;;;;;;15.99;59.58;101655.09;5452426;26;20596;-63
2024/04/12 10:56:58;;;;;;;3.35;1.55;;;;;;;15.93;59.85;101656.00;5451959;26;20246;-64
2024/04/12 10:59:28;;;;;;;3.35;2.00;;;;;;;15.87;60.07;101652.56;5452204;26;20221;-65
2024/04/12 11:01:59;;;;;;;3.67;2.33;;;;;;;15.81;60.54;101663.91;5452040;26;20234;-65
2024/04/12 11:05:05;;;;;;;5.35;2.05;;;;;;;15.83;60.98;101650.88;5443641;26;21063;-63
2024/04/12 11:07:21;;;;;;;5.18;2.30;;;;;;;15.87;60.81;101653.47;5434141;26;20466;-64
2024/04/12 11:09:57;;;;;;;2.15;1.80;;;;;;;15.80;60.58;101651.78;5452282;26;20264;-65
2024/04/12 11:12:40;;;;;;;4.00;1.98;;;;;;;15.71;60.88;101651.84;5452212;26;20214;-64
2024/04/12 11:31:06;;;;;;;3.10;1.50;;;;;;;15.62;61.81;101649.28;5438582;26;20593;-62
2024/04/12 11:32:12;;;;;;;2.65;1.58;;;;;;;15.76;61.34;101629.31;5435465;26;20709;-62
2024/04/12 11:34:44;;;;;;;1.77;1.55;;;;;;;15.81;61.38;101632.72;5452040;26;20268;-66
2024/04/12 11:37:15;;;;;;;4.90;1.60;;;;;;;15.83;61.39;101625.78;5450600;26;20246;-63
2024/04/12 11:39:45;;;;;;;2.75;1.75;;;;;;;15.87;61.04;101621.38;5450772;26;20394;-66
2024/04/12 11:42:18;;;;;;;3.80;1.98;;;;;;;15.92;60.84;101614.44;5447126;26;20296;-67
2024/04/12 11:44:53;;;;;;;4.28;2.45;;;;;;;15.99;60.50;101625.66;5450797;26;20295;-67
2024/04/12 11:47:23;;;;;;;2.75;2.00;;;;;;;16.05;60.27;101613.44;5444471;26;20245;-68
2024/04/12 11:49:57;;;;;;;2.00;1.90;;;;;;;16.11;60.13;101620.31;5449877;26;20777;-69
2024/04/12 11:52:25;;;;;;;1.88;1.77;;;;;;;16.17;59.79;101615.09;5446513;26;20249;-63
2024/04/12 11:54:58;;;;;;;5.30;1.65;;;;;;;16.19;59.44;101613.31;5450909;26;20238;-67
2024/04/12 11:57:27;;;;;;;2.67;1.88;;;;;;;16.13;59.08;101609.03;5450620;26;20246;-65
2024/04/12 12:00:08;;;;;;;2.05;1.83;;;;;;;16.06;59.78;101611.72;5431100;26;21578;-65
2024/04/12 12:02:37;;;;;;;3.15;2.00;;;;;;;15.96;59.96;101599.66;5450533;26;20227;-66
2024/04/12 12:05:07;;;;;;;1.98;1.77;;;;;;;15.91;60.24;101605.78;5451093;26;20250;-67
2024/04/12 12:07:34;;;;;;;3.42;1.80;;;;;;;15.91;60.46;101592.78;5449802;26;20837;-68
2024/04/12 12:10:08;;;;;;;2.97;1.70;;;;;;;15.90;60.37;101601.44;5433829;26;20578;-62
2024/04/12 12:12:37;;;;;;;2.55;2.00;;;;;;;15.86;60.06;101594.53;5450685;26;20273;-64
2024/04/12 12:15:13;;;;;;;3.22;2.25;;;;;;;15.83;60.57;101594.59;5450000;26;20281;-64
2024/04/12 12:17:41;;;;;;;2.85;1.65;;;;;;;15.88;60.88;101590.19;5450295;26;20229;-64
2024/04/12 12:20:17;;;;;;;3.25;1.77;;;;;;;15.93;60.72;101590.16;5450093;26;20338;-64
2024/04/12 12:22:47;;;;;;;2.70;1.80;;;;;;;15.97;60.11;101586.66;5440778;26;20250;-65
2024/04/12 12:25:18;;;;;;;4.22;1.85;;;;;;;15.96;59.35;101578.88;5435609;26;20251;-62
2024/04/12 12:27:45;;;;;;;3.15;1.83;;;;;;;16.00;59.94;101580.56;5449059;26;20744;-63
2024/04/12 12:30:22;;;;;;;2.20;1.55;;;;;;;16.02;59.59;101587.47;5430363;26;20255;-61
2024/04/12 12:32:50;;;;;;;2.70;2.13;;;;;;;16.02;59.94;101579.69;5449470;26;20292;-60
2024/04/12 12:35:22;;;;;;;3.38;1.98;;;;;;;16.01;60.02;101582.28;5450583;26;20234;-60
2024/04/12 12:37:50;;;;;;;3.03;2.22;;;;;;;16.00;59.96;101580.56;5447054;26;20239;-58
2024/04/12 12:40:21;;;;;;;2.75;2.40;;;;;;;15.98;59.54;101582.31;5448732;26;20305;-59
2024/04/12 12:42:51;;;;;;;2.95;2.13;;;;;;;15.91;59.81;101582.38;5449736;26;20759;-58
2024/04/12 12:45:27;;;;;;;2.88;1.90;;;;;;;15.85;59.61;101564.22;5450309;26;20234;-60
2024/04/12 12:47:55;;;;;;;3.05;2.17;;;;;;;15.81;59.27;101572.94;5444386;26;20250;-62
2024/04/12 12:50:25;;;;;;;3.97;2.15;;;;;;;15.85;59.44;101568.56;5437412;26;20230;-58
2024/04/12 12:52:53;;;;;;;2.13;1.95;;;;;;;15.86;59.42;101552.94;5441861;26;20261;-60
2024/04/12 12:55:28;;;;;;;3.42;1.90;;;;;;;15.88;59.43;101559.00;5421054;26;20253;-60
2024/04/12 12:58:09;;;;;;;14.27;3.38;;;;;;;15.89;59.35;101557.25;5438265;26;20257;-58
2024/04/12 13:00:44;;;;;;;6.28;2.40;;;;;;;15.98;59.89;101566.69;5449209;26;20704;-57
2024/04/12 13:03:12;;;;;;;4.25;1.98;;;;;;;16.03;59.21;101564.94;5450075;26;20716;-57